createdAt,value
2023-01-07T00:03:33.744Z,64.67436
2023-01-07T00:08:35.400Z,64.8319
2023-01-07T00:13:37.117Z,64.68347
2023-01-07T00:18:38.714Z,67.57082
2023-01-07T00:23:40.412Z,65.75676
2023-01-07T00:28:42.062Z,66.26601
2023-01-07T00:33:43.708Z,66.34975
2023-01-07T00:38:45.299Z,66.73724
2023-01-07T00:43:46.922Z,68.24257
2023-01-07T00:48:48.542Z,67.58631
2023-01-07T00:53:50.226Z,69.83119
2023-01-07T00:58:51.873Z,72.88972
2023-01-07T01:03:53.451Z,69.1106
2023-01-07T01:08:55.165Z,70.59825
2023-01-07T01:13:56.722Z,69.80002
2023-01-07T01:18:58.344Z,67.20519
2023-01-07T01:23:59.936Z,66.58007
2023-01-07T01:29:01.614Z,68.0648
2023-01-07T01:34:03.265Z,67.22148
2023-01-07T01:39:04.929Z,69.10243
2023-01-07T01:44:06.552Z,69.24259
2023-01-07T01:49:08.399Z,71.41765
2023-01-07T01:54:10.011Z,71.72315
2023-01-07T01:59:11.648Z,68.57092
2023-01-07T02:04:13.289Z,73.78993
2023-01-07T02:09:14.910Z,71.94598
2023-01-07T02:14:16.525Z,71.21423
2023-01-07T02:19:18.216Z,70.28454
2023-01-07T02:24:19.878Z,67.79096
2023-01-07T02:29:21.499Z,70.43459
2023-01-07T02:34:23.128Z,70.27331
2023-01-07T02:39:24.791Z,70.54138
2023-01-07T02:44:26.439Z,67.47219
2023-01-07T02:49:28.101Z,68.41652
2023-01-07T02:54:29.763Z,71.86989
2023-01-07T02:59:31.355Z,68.87313
2023-01-07T03:04:32.952Z,69.03276
2023-01-07T03:09:34.563Z,70.71854
2023-01-07T03:14:36.163Z,72.19074
2023-01-07T03:19:37.779Z,72.05855
2023-01-07T03:24:39.405Z,70.19862
2023-01-07T03:29:41.047Z,70.6831
2023-01-07T03:34:42.679Z,71.73836
2023-01-07T03:39:44.301Z,73.24849
2023-01-07T03:44:45.923Z,71.61032
2023-01-07T03:49:47.536Z,68.76205
2023-01-07T03:54:49.139Z,69.2544
2023-01-07T03:59:50.793Z,68.50743
2023-01-07T04:04:52.469Z,69.06712
2023-01-07T04:09:54.341Z,68.74915
2023-01-07T04:14:57.859Z,68.70756
2023-01-07T04:20:00.915Z,70.63564
2023-01-07T04:25:02.456Z,71.68722
2023-01-07T04:30:04.177Z,72.67696
2023-01-07T04:35:05.916Z,74.55491
2023-01-07T04:40:07.543Z,75.52721
2023-01-07T04:45:09.149Z,72.53635
2023-01-07T04:50:10.918Z,70.74113
2023-01-07T04:55:12.513Z,71.06585
2023-01-07T05:00:14.388Z,70.18483
2023-01-07T05:05:16.054Z,73.64819
2023-01-07T05:10:17.656Z,71.29272
2023-01-07T05:15:19.257Z,69.70996
2023-01-07T05:20:20.955Z,72.56116
2023-01-07T05:25:22.771Z,72.50443
2023-01-07T05:30:24.413Z,70.76948
2023-01-07T05:35:26.042Z,71.06313
2023-01-07T05:40:27.645Z,72.84344
2023-01-07T05:45:29.328Z,73.89697
2023-01-07T05:50:30.965Z,70.77756
2023-01-07T05:55:32.632Z,74.6003
2023-01-07T06:00:34.306Z,76.15779
2023-01-07T06:05:35.900Z,73.80547
2023-01-07T06:10:37.579Z,78.98193
2023-01-07T06:15:39.416Z,72.87836
2023-01-07T06:20:41.173Z,72.78324
2023-01-07T06:25:42.747Z,75.49019
2023-01-07T06:30:44.520Z,70.49739
2023-01-07T06:35:46.127Z,71.51339
2023-01-07T06:40:47.715Z,70.65005
2023-01-07T06:45:49.380Z,71.6614
2023-01-07T06:50:51.026Z,70.07663
2023-01-07T06:55:52.665Z,70.87202
2023-01-07T07:00:54.333Z,72.39605
2023-01-07T07:05:56.011Z,71.40613
2023-01-07T07:10:57.672Z,71.53184
2023-01-07T07:15:59.401Z,72.64983
2023-01-07T07:21:01.193Z,71.55014
2023-01-07T07:26:02.831Z,72.55089
2023-01-07T07:31:04.518Z,78.4701
2023-01-07T07:36:06.416Z,73.73161
2023-01-07T07:41:08.075Z,71.83739
2023-01-07T07:46:09.733Z,73.38746
2023-01-07T07:51:11.634Z,71.38908
2023-01-07T07:56:13.243Z,72.41975
2023-01-07T08:01:14.892Z,70.58653
2023-01-07T08:06:16.588Z,70.46049
2023-01-07T08:11:18.243Z,70.22151
2023-01-07T08:16:20.002Z,69.31499
2023-01-07T08:21:21.614Z,72.88144
2023-01-07T08:26:23.198Z,74.23142
2023-01-07T08:31:24.941Z,74.93981
2023-01-07T08:36:26.607Z,75.92679
2023-01-07T08:41:28.270Z,74.53009
2023-01-07T08:46:29.949Z,74.52199
2023-01-07T08:51:31.588Z,73.56912
2023-01-07T08:56:33.257Z,75.41449
2023-01-07T09:01:35.056Z,74.45803
2023-01-07T09:06:36.819Z,73.8857
2023-01-07T09:11:38.498Z,72.37826
2023-01-07T09:16:40.165Z,77.275
2023-01-07T09:21:41.867Z,81.00294
2023-01-07T09:26:43.483Z,83.1111
2023-01-07T09:31:45.118Z,81.31034
2023-01-07T09:36:46.857Z,77.82385
2023-01-07T09:41:48.512Z,75.72578
2023-01-07T09:46:50.087Z,80.11801
2023-01-07T09:51:51.696Z,83.71135
2023-01-07T09:56:53.349Z,83.17781
2023-01-07T10:01:54.956Z,81.32599
2023-01-07T10:06:56.578Z,81.18127
2023-01-07T10:11:58.193Z,83.28313
2023-01-07T10:16:59.983Z,83.39587
2023-01-07T10:22:01.630Z,84.70362
2023-01-07T10:27:03.305Z,83.90572
2023-01-07T10:32:04.951Z,78.1006
2023-01-07T10:37:06.817Z,78.09982
2023-01-07T10:42:08.512Z,82.4504
2023-01-07T10:47:10.099Z,82.17818
2023-01-07T10:52:11.827Z,79.74037
2023-01-07T10:57:13.423Z,77.30074
2023-01-07T11:02:15.282Z,77.37833
2023-01-07T11:07:17.074Z,79.23243
2023-01-07T11:12:18.750Z,75.75682
2023-01-07T11:17:20.337Z,76.48781
2023-01-07T11:22:22.051Z,74.53559
2023-01-07T11:27:23.641Z,78.42538
2023-01-07T11:32:25.224Z,74.77889
2023-01-07T11:37:27.034Z,73.16877
2023-01-07T11:42:28.620Z,75.36077
2023-01-07T11:47:30.241Z,77.95407
2023-01-07T11:52:31.936Z,77.26657
2023-01-07T11:57:33.583Z,78.66957
2023-01-07T12:02:35.317Z,80.69467
2023-01-07T12:07:36.964Z,83.57949
2023-01-07T12:12:38.626Z,81.39442
2023-01-07T12:17:40.270Z,81.67312
2023-01-07T12:22:41.903Z,83.82812
2023-01-07T12:27:43.615Z,77.55126
2023-01-07T12:32:45.209Z,76.54169
2023-01-07T12:37:46.806Z,75.32735
2023-01-07T12:42:48.476Z,74.60975
2023-01-07T12:47:50.302Z,75.32389
2023-01-07T12:52:51.902Z,79.60745
2023-01-07T12:57:53.520Z,74.74183
2023-01-07T13:02:55.181Z,73.82498
2023-01-07T13:07:56.789Z,73.77987
2023-01-07T13:12:58.418Z,73.59566
2023-01-07T13:18:00.111Z,78.26808
2023-01-07T13:23:01.720Z,78.12748
2023-01-07T13:28:03.299Z,75.58947
2023-01-07T13:33:05.066Z,74.64366
2023-01-07T13:38:06.697Z,78.21009
2023-01-07T13:43:08.339Z,81.21322
2023-01-07T13:48:09.964Z,79.21024
2023-01-07T13:53:11.735Z,81.54195
2023-01-07T13:58:13.395Z,78.09825
2023-01-07T14:03:15.271Z,80.06607
2023-01-07T14:08:16.982Z,77.81958
2023-01-07T14:13:18.648Z,74.52332
2023-01-07T14:18:20.355Z,73.58853
2023-01-07T14:23:21.970Z,73.90754
2023-01-07T14:28:23.602Z,78.92797
2023-01-07T14:33:25.247Z,77.12351
2023-01-07T14:38:26.936Z,75.10252
2023-01-07T14:43:28.655Z,76.71818
2023-01-07T14:48:30.251Z,75.79218
2023-01-07T14:53:31.871Z,76.08673
2023-01-07T14:58:33.520Z,78.89684
2023-01-07T15:03:35.161Z,78.87838
2023-01-07T15:08:36.862Z,81.52188
2023-01-07T15:13:38.530Z,76.5936
2023-01-07T15:18:40.135Z,78.27949
2023-01-07T15:23:41.763Z,75.23347
2023-01-07T15:28:43.408Z,77.49816
2023-01-07T15:33:45.312Z,76.1314
2023-01-07T15:38:48.969Z,82.01945
2023-01-07T15:43:52.259Z,76.81368
2023-01-07T15:48:53.923Z,79.29191
2023-01-07T15:53:55.618Z,82.01915
2023-01-07T15:58:57.198Z,77.46534
2023-01-07T16:03:58.824Z,76.37357
2023-01-07T16:09:00.423Z,79.05384
2023-01-07T16:14:02.086Z,76.79151
2023-01-07T16:19:03.740Z,83.03261
2023-01-07T16:24:05.308Z,82.82898
2023-01-07T16:29:06.922Z,80.38151
2023-01-07T16:34:08.510Z,78.17491
2023-01-07T16:39:10.094Z,78.44832
2023-01-07T16:44:11.863Z,79.50267
2023-01-07T16:49:13.695Z,76.30052
2023-01-07T16:54:16.216Z,79.0317
2023-01-07T16:59:19.407Z,78.37796
2023-01-07T17:04:21.001Z,77.01231
2023-01-07T17:09:22.635Z,77.70739
2023-01-07T17:14:24.352Z,77.62812
2023-01-07T17:19:25.986Z,74.83104
2023-01-07T17:24:27.695Z,73.10415
2023-01-07T17:29:29.342Z,75.16726
2023-01-07T17:34:30.924Z,74.799
2023-01-07T17:39:32.557Z,79.29876
2023-01-07T17:44:34.260Z,81.12783
2023-01-07T17:49:35.884Z,78.48727
2023-01-07T17:54:37.526Z,80.71769
2023-01-07T17:59:39.106Z,77.42177
2023-01-07T18:04:40.716Z,74.98427
2023-01-07T18:09:42.356Z,72.99362
2023-01-07T18:14:44.009Z,74.28184
2023-01-07T18:19:45.693Z,73.92933
2023-01-07T18:24:47.327Z,75.94421
2023-01-07T18:29:48.995Z,75.52848
2023-01-07T18:34:50.697Z,75.67252
2023-01-07T18:39:52.305Z,77.07886
2023-01-07T18:44:53.935Z,73.87817
2023-01-07T18:49:55.880Z,72.783
2023-01-07T18:54:57.566Z,73.59849
2023-01-07T18:59:59.183Z,72.18053
2023-01-07T19:05:00.826Z,73.1801
2023-01-07T19:10:02.452Z,71.70769
2023-01-07T19:15:04.066Z,73.84931
2023-01-07T19:20:05.688Z,72.44
2023-01-07T19:25:07.343Z,70.1846
2023-01-07T19:30:09.013Z,71.35354
2023-01-07T19:35:10.636Z,68.67304
2023-01-07T19:40:12.254Z,70.28685
2023-01-07T19:45:13.912Z,69.81009
2023-01-07T19:50:15.588Z,74.70515
2023-01-07T19:55:17.228Z,72.3881
2023-01-07T20:00:18.842Z,71.97605
2023-01-07T20:05:20.422Z,69.40955
2023-01-07T20:10:22.041Z,69.08127
2023-01-07T20:15:23.635Z,68.39588
2023-01-07T20:20:25.228Z,66.64112
2023-01-07T20:25:26.806Z,68.85659
2023-01-07T20:30:28.496Z,67.32499
2023-01-07T20:35:30.234Z,66.18423
2023-01-07T20:40:31.867Z,64.56687
2023-01-07T20:45:33.547Z,64.2514
2023-01-07T20:50:35.179Z,62.6717
2023-01-07T20:55:36.929Z,61.60745
2023-01-07T21:00:40.349Z,64.49873
2023-01-07T21:05:42.790Z,63.94952
2023-01-07T21:10:44.421Z,65.09778
2023-01-07T21:15:46.103Z,66.24405
2023-01-07T21:20:47.737Z,64.64487
2023-01-07T21:25:50.103Z,68.45868
2023-01-07T21:30:51.736Z,67.51223
2023-01-07T21:35:53.382Z,68.55374
2023-01-07T21:40:55.060Z,65.1189
2023-01-07T21:45:56.774Z,64.60412
2023-01-07T21:50:58.444Z,62.74372
2023-01-07T21:56:00.137Z,62.70671
2023-01-07T22:01:01.985Z,62.80064
2023-01-07T22:06:03.978Z,64.23953
2023-01-07T22:11:05.595Z,63.48303
2023-01-07T22:16:07.283Z,66.29146
2023-01-07T22:21:08.951Z,64.85216
2023-01-07T22:26:10.621Z,65.82584
2023-01-07T22:31:12.268Z,64.72373
2023-01-07T22:36:13.896Z,66.31096
2023-01-07T22:41:15.551Z,65.7875
2023-01-07T22:46:17.194Z,64.56656
2023-01-07T22:51:19.057Z,64.21417
2023-01-07T22:56:20.704Z,66.14196
2023-01-07T23:01:22.463Z,67.0083
2023-01-07T23:06:24.159Z,68.72691
2023-01-07T23:11:25.747Z,65.89549
2023-01-07T23:16:27.435Z,67.54
2023-01-07T23:21:29.124Z,68.1275
2023-01-07T23:26:30.718Z,66.99467
2023-01-07T23:31:32.370Z,67.57585
2023-01-07T23:36:33.961Z,67.04656
2023-01-07T23:41:35.586Z,68.02571
2023-01-07T23:46:37.279Z,67.56153
2023-01-07T23:51:38.878Z,68.88723
2023-01-07T23:56:40.550Z,71.06213
